sensor_id;sensor_type;location;lat;lon;timestamp;pressure;altitude;pressure_sealevel;temperature;humidity
67697;BME280;54486;51.442;6.778;2023-01-27T00:00:50;102177.69;;;4.22;96.84
67697;BME280;54486;51.442;6.778;2023-01-27T00:03:17;102179.47;;;4.23;97.11
67697;BME280;54486;51.442;6.778;2023-01-27T00:05:45;102181.13;;;4.21;96.61
67697;BME280;54486;51.442;6.778;2023-01-27T00:08:12;102176.06;;;4.24;96.22
67697;BME280;54486;51.442;6.778;2023-01-27T00:10:40;102176.00;;;4.22;96.06
67697;BME280;54486;51.442;6.778;2023-01-27T00:13:08;102174.28;;;4.23;95.76
67697;BME280;54486;51.442;6.778;2023-01-27T00:15:54;102175.94;;;4.21;96.55
67697;BME280;54486;51.442;6.778;2023-01-27T00:18:22;102173.47;;;4.24;96.01
67697;BME280;54486;51.442;6.778;2023-01-27T00:20:49;102173.41;;;4.22;96.01
67697;BME280;54486;51.442;6.778;2023-01-27T00:23:35;102189.91;;;4.26;95.88
67697;BME280;54486;51.442;6.778;2023-01-27T00:26:21;102182.84;;;4.22;96.16
67697;BME280;54486;51.442;6.778;2023-01-27T00:28:48;102179.38;;;4.21;96.64
67697;BME280;54486;51.442;6.778;2023-01-27T00:31:16;102186.53;;;4.27;96.44
67697;BME280;54486;51.442;6.778;2023-01-27T00:34:02;102179.47;;;4.23;96.07
67697;BME280;54486;51.442;6.778;2023-01-27T00:36:37;102181.16;;;4.22;96.42
67697;BME280;54486;51.442;6.778;2023-01-27T00:39:05;102185.41;;;4.20;96.84
67697;BME280;54486;51.442;6.778;2023-01-27T00:41:33;102182.84;;;4.22;96.43
67697;BME280;54486;51.442;6.778;2023-01-27T00:44:00;102185.44;;;4.22;96.84
67697;BME280;54486;51.442;6.778;2023-01-27T00:46:27;102191.44;;;4.21;96.47
67697;BME280;54486;51.442;6.778;2023-01-27T00:48:55;102181.13;;;4.21;95.73
67697;BME280;54486;51.442;6.778;2023-01-27T00:51:22;102186.16;;;4.18;95.98
67697;BME280;54486;51.442;6.778;2023-01-27T00:53:49;102182.84;;;4.22;95.33
67697;BME280;54486;51.442;6.778;2023-01-27T00:56:16;102179.34;;;4.20;95.20
67697;BME280;54486;51.442;6.778;2023-01-27T00:58:43;102186.28;;;4.21;95.20
67697;BME280;54486;51.442;6.778;2023-01-27T01:01:12;102183.63;;;4.19;95.29
67697;BME280;54486;51.442;6.778;2023-01-27T01:03:40;102188.91;;;4.22;95.08
67697;BME280;54486;51.442;6.778;2023-01-27T01:06:08;102193.19;;;4.22;95.20
67697;BME280;54486;51.442;6.778;2023-01-27T01:08:36;102186.19;;;4.19;95.23
67697;BME280;54486;51.442;6.778;2023-01-27T01:11:03;102184.50;;;4.20;95.39
67697;BME280;54486;51.442;6.778;2023-01-27T01:13:31;102187.91;;;4.19;95.29
67697;BME280;54486;51.442;6.778;2023-01-27T01:16:06;102197.34;;;4.18;96.06
67697;BME280;54486;51.442;6.778;2023-01-27T01:18:33;102199.13;;;4.19;95.80
67697;BME280;54486;51.442;6.778;2023-01-27T01:21:00;102197.47;;;4.21;95.66
67697;BME280;54486;51.442;6.778;2023-01-27T01:23:27;102198.34;;;4.22;95.83
67697;BME280;54486;51.442;6.778;2023-01-27T01:25:54;102201.78;;;4.21;95.87
67697;BME280;54486;51.442;6.778;2023-01-27T01:28:21;102201.78;;;4.21;96.29
67697;BME280;54486;51.442;6.778;2023-01-27T01:30:48;102201.66;;;4.18;96.11
67697;BME280;54486;51.442;6.778;2023-01-27T01:33:15;102212.13;;;4.21;95.83
67697;BME280;54486;51.442;6.778;2023-01-27T01:35:42;102205.16;;;4.20;96.08
67697;BME280;54486;51.442;6.778;2023-01-27T01:38:09;102213.72;;;4.19;95.86
67697;BME280;54486;51.442;6.778;2023-01-27T01:40:40;102210.22;;;4.17;95.93
67697;BME280;54486;51.442;6.778;2023-01-27T01:43:13;102219.66;;;4.16;95.98
67697;BME280;54486;51.442;6.778;2023-01-27T01:48:24;102217.84;;;4.14;96.00
67697;BME280;54486;51.442;6.778;2023-01-27T01:51:27;102224.06;;;4.19;95.92
67697;BME280;54486;51.442;6.778;2023-01-27T01:53:47;102222.31;;;4.18;96.08
67697;BME280;54486;51.442;6.778;2023-01-27T01:56:20;102225.72;;;4.17;96.06
67697;BME280;54486;51.442;6.778;2023-01-27T01:58:49;102229.09;;;4.16;96.58
67697;BME280;54486;51.442;6.778;2023-01-27T02:01:17;102222.16;;;4.15;96.49
67697;BME280;54486;51.442;6.778;2023-01-27T02:03:46;102225.72;;;4.17;96.25
67697;BME280;54486;51.442;6.778;2023-01-27T02:06:13;102230.00;;;4.16;95.59
67697;BME280;54486;51.442;6.778;2023-01-27T02:08:41;102229.91;;;4.15;95.51
67697;BME280;54486;51.442;6.778;2023-01-27T02:11:11;102231.63;;;4.14;94.26
67697;BME280;54486;51.442;6.778;2023-01-27T02:13:39;102230.63;;;4.11;94.32
67697;BME280;54486;51.442;6.778;2023-01-27T02:16:07;102228.97;;;4.13;94.58
67697;BME280;54486;51.442;6.778;2023-01-27T02:18:38;102221.06;;;4.08;95.24
67697;BME280;54486;51.442;6.778;2023-01-27T02:21:07;102233.75;;;4.04;95.39
67697;BME280;54486;51.442;6.778;2023-01-27T02:28:54;102230.25;;;4.02;94.88
67697;BME280;54486;51.442;6.778;2023-01-27T02:31:23;102237.03;;;4.00;95.55
67697;BME280;54486;51.442;6.778;2023-01-27T02:33:50;102242.19;;;4.00;95.07
67697;BME280;54486;51.442;6.778;2023-01-27T02:36:19;102247.34;;;4.00;95.60
67697;BME280;54486;51.442;6.778;2023-01-27T02:38:47;102252.38;;;3.97;96.28
67697;BME280;54486;51.442;6.778;2023-01-27T02:41:20;102248.75;;;3.92;97.10
67697;BME280;54486;51.442;6.778;2023-01-27T02:43:53;102242.06;;;3.97;97.07
67697;BME280;54486;51.442;6.778;2023-01-27T02:46:20;102257.16;;;3.88;97.40
67697;BME280;54486;51.442;6.778;2023-01-27T02:48:47;102249.84;;;3.78;97.45
67697;BME280;54486;51.442;6.778;2023-01-27T02:51:16;102259.13;;;3.74;97.63
67697;BME280;54486;51.442;6.778;2023-01-27T02:53:44;102258.25;;;3.73;98.23
67697;BME280;54486;51.442;6.778;2023-01-27T02:56:12;102254.59;;;3.68;97.94
67697;BME280;54486;51.442;6.778;2023-01-27T02:58:38;102261.41;;;3.66;97.61
67697;BME280;54486;51.442;6.778;2023-01-27T03:01:07;102259.50;;;3.62;96.90
67697;BME280;54486;51.442;6.778;2023-01-27T03:03:34;102263.72;;;3.60;96.61
67697;BME280;54486;51.442;6.778;2023-01-27T03:06:01;102257.72;;;3.61;96.73
67697;BME280;54486;51.442;6.778;2023-01-27T03:08:28;102266.28;;;3.60;96.86
67697;BME280;54486;51.442;6.778;2023-01-27T03:10:55;102260.97;;;3.57;96.24
67697;BME280;54486;51.442;6.778;2023-01-27T03:13:22;102255.97;;;3.60;96.64
67697;BME280;54486;51.442;6.778;2023-01-27T03:15:50;102259.34;;;3.59;97.23
67697;BME280;54486;51.442;6.778;2023-01-27T03:18:37;102260.16;;;3.58;97.32
67697;BME280;54486;51.442;6.778;2023-01-27T03:21:05;102262.75;;;3.58;97.11
67697;BME280;54486;51.442;6.778;2023-01-27T03:23:32;102259.22;;;3.56;97.34
67697;BME280;54486;51.442;6.778;2023-01-27T03:26:05;102252.41;;;3.58;97.70
67697;BME280;54486;51.442;6.778;2023-01-27T03:28:32;102255.81;;;3.57;97.93
67697;BME280;54486;51.442;6.778;2023-01-27T03:31:04;102252.56;;;3.61;98.08
67697;BME280;54486;51.442;6.778;2023-01-27T03:33:31;102255.81;;;3.57;98.29
67697;BME280;54486;51.442;6.778;2023-01-27T03:36:01;102257.44;;;3.55;98.65
67697;BME280;54486;51.442;6.778;2023-01-27T03:38:47;102254.72;;;3.52;99.17
67697;BME280;54486;51.442;6.778;2023-01-27T03:41:33;102260.81;;;3.54;99.19
67697;BME280;54486;51.442;6.778;2023-01-27T03:44:18;102258.19;;;3.53;99.41
67697;BME280;54486;51.442;6.778;2023-01-27T03:47:04;102262.47;;;3.52;99.77
67697;BME280;54486;51.442;6.778;2023-01-27T03:49:31;102261.72;;;3.55;100.00
67697;BME280;54486;51.442;6.778;2023-01-27T03:51:58;102264.25;;;3.53;99.43
67697;BME280;54486;51.442;6.778;2023-01-27T03:54:26;102270.00;;;3.48;100.00
67697;BME280;54486;51.442;6.778;2023-01-27T03:56:53;102275.38;;;3.52;100.00
67697;BME280;54486;51.442;6.778;2023-01-27T03:59:20;102273.72;;;3.54;100.00
67697;BME280;54486;51.442;6.778;2023-01-27T04:01:47;102269.41;;;3.53;100.00
67697;BME280;54486;51.442;6.778;2023-01-27T04:04:14;102276.19;;;3.51;100.00
67697;BME280;54486;51.442;6.778;2023-01-27T04:07:00;102274.44;;;3.50;100.00
67697;BME280;54486;51.442;6.778;2023-01-27T04:09:29;102275.38;;;3.52;100.00
67697;BME280;54486;51.442;6.778;2023-01-27T04:11:57;102268.53;;;3.53;100.00
67697;BME280;54486;51.442;6.778;2023-01-27T04:16:55;102275.91;;;3.45;100.00
67697;BME280;54486;51.442;6.778;2023-01-27T04:19:23;102277.69;;;3.46;100.00
67697;BME280;54486;51.442;6.778;2023-01-27T04:21:51;102281.06;;;3.45;100.00
67697;BME280;54486;51.442;6.778;2023-01-27T04:24:19;102273.31;;;3.45;100.00
67697;BME280;54486;51.442;6.778;2023-01-27T04:26:49;102265.59;;;3.45;100.00
67697;BME280;54486;51.442;6.778;2023-01-27T04:29:17;102274.03;;;3.41;100.00
67697;BME280;54486;51.442;6.778;2023-01-27T04:31:44;102271.59;;;3.44;100.00
67697;BME280;54486;51.442;6.778;2023-01-27T04:34:12;102267.28;;;3.45;100.00
67697;BME280;54486;51.442;6.778;2023-01-27T04:36:39;102279.31;;;3.44;100.00
67697;BME280;54486;51.442;6.778;2023-01-27T04:39:06;102280.03;;;3.42;100.00
67697;BME280;54486;51.442;6.778;2023-01-27T04:41:35;102281.63;;;3.38;100.00
67697;BME280;54486;51.442;6.778;2023-01-27T04:44:02;102280.66;;;3.36;100.00
67697;BME280;54486;51.442;6.778;2023-01-27T04:46:30;102279.91;;;3.39;100.00
67697;BME280;54486;51.442;6.778;2023-01-27T04:48:57;102280.78;;;3.39;100.00
67697;BME280;54486;51.442;6.778;2023-01-27T04:51:25;102280.78;;;3.39;100.00
67697;BME280;54486;51.442;6.778;2023-01-27T04:53:52;102287.06;;;3.44;100.00
67697;BME280;54486;51.442;6.778;2023-01-27T04:56:22;102286.78;;;3.38;100.00
67697;BME280;54486;51.442;6.778;2023-01-27T04:58:49;102284.22;;;3.38;100.00
67697;BME280;54486;51.442;6.778;2023-01-27T05:01:17;102290.97;;;3.36;100.00
67697;BME280;54486;51.442;6.778;2023-01-27T05:03:44;102295.19;;;3.34;100.00
67697;BME280;54486;51.442;6.778;2023-01-27T05:06:12;102294.34;;;3.35;100.00
67697;BME280;54486;51.442;6.778;2023-01-27T05:08:40;102296.00;;;3.33;100.00
67697;BME280;54486;51.442;6.778;2023-01-27T05:11:07;102288.34;;;3.35;100.00
67697;BME280;54486;51.442;6.778;2023-01-27T05:13:33;102286.47;;;3.32;100.00
67697;BME280;54486;51.442;6.778;2023-01-27T05:16:04;102294.34;;;3.35;100.00
67697;BME280;54486;51.442;6.778;2023-01-27T05:18:32;102283.09;;;3.33;100.00
67697;BME280;54486;51.442;6.778;2023-01-27T05:20:59;102283.22;;;3.36;100.00
67697;BME280;54486;51.442;6.778;2023-01-27T05:23:27;102284.03;;;3.35;100.00
67697;BME280;54486;51.442;6.778;2023-01-27T05:26:07;102284.03;;;3.35;100.00
67697;BME280;54486;51.442;6.778;2023-01-27T05:28:35;102288.38;;;3.36;100.00
67697;BME280;54486;51.442;6.778;2023-01-27T05:31:10;102284.34;;;3.41;100.00
67697;BME280;54486;51.442;6.778;2023-01-27T05:33:38;102286.78;;;3.38;100.00
67697;BME280;54486;51.442;6.778;2023-01-27T05:36:06;102292.75;;;3.37;100.00
67697;BME280;54486;51.442;6.778;2023-01-27T05:38:33;102299.69;;;3.38;100.00
67697;BME280;54486;51.442;6.778;2023-01-27T05:41:01;102294.56;;;3.40;100.00
67697;BME280;54486;51.442;6.778;2023-01-27T05:43:30;102297.28;;;3.43;100.00
67697;BME280;54486;51.442;6.778;2023-01-27T05:46:04;102296.41;;;3.42;100.00
67697;BME280;54486;51.442;6.778;2023-01-27T05:48:35;102300.91;;;3.46;100.00
67697;BME280;54486;51.442;6.778;2023-01-27T05:51:04;102302.59;;;3.46;100.00
67697;BME280;54486;51.442;6.778;2023-01-27T05:53:32;102307.00;;;3.48;100.00
67697;BME280;54486;51.442;6.778;2023-01-27T05:56:00;102299.97;;;3.44;100.00
67697;BME280;54486;51.442;6.778;2023-01-27T05:58:27;102303.47;;;3.46;100.00
67697;BME280;54486;51.442;6.778;2023-01-27T06:00:54;102301.84;;;3.48;100.00
67697;BME280;54486;51.442;6.778;2023-01-27T06:03:21;102301.84;;;3.48;100.00
67697;BME280;54486;51.442;6.778;2023-01-27T06:05:48;102303.63;;;3.49;100.00
67697;BME280;54486;51.442;6.778;2023-01-27T06:08:16;102298.59;;;3.52;100.00
67697;BME280;54486;51.442;6.778;2023-01-27T06:10:43;102306.44;;;3.54;100.00
67697;BME280;54486;51.442;6.778;2023-01-27T06:13:10;102310.69;;;3.53;100.00
67697;BME280;54486;51.442;6.778;2023-01-27T06:15:39;102303.91;;;3.55;100.00
67697;BME280;54486;51.442;6.778;2023-01-27T06:18:06;102301.41;;;3.57;100.00
67697;BME280;54486;51.442;6.778;2023-01-27T06:20:32;102309.06;;;3.55;100.00
67697;BME280;54486;51.442;6.778;2023-01-27T06:23:00;102305.53;;;3.53;100.00
67697;BME280;54486;51.442;6.778;2023-01-27T06:25:28;102312.44;;;3.54;100.00
67697;BME280;54486;51.442;6.778;2023-01-27T06:27:55;102308.91;;;3.52;100.00
67697;BME280;54486;51.442;6.778;2023-01-27T06:30:23;102317.59;;;3.54;100.00
67697;BME280;54486;51.442;6.778;2023-01-27T06:32:49;102322.06;;;3.57;100.00
67697;BME280;54486;51.442;6.778;2023-01-27T06:35:17;102328.06;;;3.57;100.00
67697;BME280;54486;51.442;6.778;2023-01-27T06:37:44;102335.00;;;3.58;100.00
67697;BME280;54486;51.442;6.778;2023-01-27T06:40:11;102337.72;;;3.61;100.00
67697;BME280;54486;51.442;6.778;2023-01-27T06:42:40;102337.06;;;3.65;100.00
67697;BME280;54486;51.442;6.778;2023-01-27T06:45:08;102336.03;;;3.62;100.00
67697;BME280;54486;51.442;6.778;2023-01-27T06:47:35;102338.69;;;3.63;100.00
67697;BME280;54486;51.442;6.778;2023-01-27T06:50:02;102332.03;;;3.68;100.00
67697;BME280;54486;51.442;6.778;2023-01-27T06:52:30;102337.19;;;3.68;100.00
67697;BME280;54486;51.442;6.778;2023-01-27T06:54:57;102347.66;;;3.71;100.00
67697;BME280;54486;51.442;6.778;2023-01-27T06:57:24;102337.19;;;3.68;100.00
67697;BME280;54486;51.442;6.778;2023-01-27T06:59:51;102349.28;;;3.69;100.00
67697;BME280;54486;51.442;6.778;2023-01-27T07:02:18;102345.88;;;3.70;100.00
67697;BME280;54486;51.442;6.778;2023-01-27T07:04:45;102346.00;;;3.73;100.00
67697;BME280;54486;51.442;6.778;2023-01-27T07:07:12;102349.72;;;3.79;100.00
67697;BME280;54486;51.442;6.778;2023-01-27T07:09:39;102352.97;;;3.74;100.00
67697;BME280;54486;51.442;6.778;2023-01-27T07:12:18;102353.09;;;3.78;100.00
67697;BME280;54486;51.442;6.778;2023-01-27T07:14:45;102353.09;;;3.78;100.00
67697;BME280;54486;51.442;6.778;2023-01-27T07:17:12;102365.19;;;3.79;100.00
67697;BME280;54486;51.442;6.778;2023-01-27T07:19:39;102370.38;;;3.79;100.00
67697;BME280;54486;51.442;6.778;2023-01-27T07:22:06;102367.91;;;3.82;100.00
67697;BME280;54486;51.442;6.778;2023-01-27T07:24:33;102366.97;;;3.80;100.00
67697;BME280;54486;51.442;6.778;2023-01-27T07:27:00;102367.13;;;3.83;100.00
67697;BME280;54486;51.442;6.778;2023-01-27T07:29:27;102365.47;;;3.85;100.00
67697;BME280;54486;51.442;6.778;2023-01-27T07:31:54;102362.09;;;3.86;100.00
67697;BME280;54486;51.442;6.778;2023-01-27T07:34:22;102370.63;;;3.85;100.00
67697;BME280;54486;51.442;6.778;2023-01-27T07:36:49;102371.56;;;3.87;100.00
67697;BME280;54486;51.442;6.778;2023-01-27T07:39:16;102379.47;;;3.90;100.00
67697;BME280;54486;51.442;6.778;2023-01-27T07:41:46;102373.34;;;3.88;100.00
67697;BME280;54486;51.442;6.778;2023-01-27T07:44:13;102375.94;;;3.88;100.00
67697;BME280;54486;51.442;6.778;2023-01-27T07:46:40;102368.31;;;3.91;100.00
67697;BME280;54486;51.442;6.778;2023-01-27T07:49:07;102374.44;;;3.93;100.00
67697;BME280;54486;51.442;6.778;2023-01-27T07:51:34;102379.59;;;3.93;100.00
67697;BME280;54486;51.442;6.778;2023-01-27T07:54:01;102391.66;;;3.92;100.00
67697;BME280;54486;51.442;6.778;2023-01-27T07:56:28;102397.75;;;3.94;100.00
67697;BME280;54486;51.442;6.778;2023-01-27T07:58:55;102391.84;;;3.97;100.00
67697;BME280;54486;51.442;6.778;2023-01-27T08:01:22;102395.09;;;3.93;100.00
67697;BME280;54486;51.442;6.778;2023-01-27T08:03:50;102395.22;;;3.96;100.00
67697;BME280;54486;51.442;6.778;2023-01-27T08:06:17;102386.53;;;3.94;100.00
67697;BME280;54486;51.442;6.778;2023-01-27T08:08:45;102387.66;;;3.99;100.00
67697;BME280;54486;51.442;6.778;2023-01-27T08:11:12;102391.31;;;4.04;100.00
67697;BME280;54486;51.442;6.778;2023-01-27T08:13:40;102399.19;;;4.07;100.00
67697;BME280;54486;51.442;6.778;2023-01-27T08:16:10;102393.22;;;4.08;100.00
67697;BME280;54486;51.442;6.778;2023-01-27T08:18:38;102385.66;;;4.12;100.00
67697;BME280;54486;51.442;6.778;2023-01-27T08:21:08;102388.38;;;4.15;100.00
67697;BME280;54486;51.442;6.778;2023-01-27T08:23:36;102387.47;;;4.15;100.00
67697;BME280;54486;51.442;6.778;2023-01-27T08:26:03;102398.84;;;4.18;100.00
67697;BME280;54486;51.442;6.778;2023-01-27T08:28:31;102404.22;;;4.23;100.00
67697;BME280;54486;51.442;6.778;2023-01-27T08:31:06;102396.34;;;4.20;100.00
67697;BME280;54486;51.442;6.778;2023-01-27T08:33:34;102403.34;;;4.22;100.00
67697;BME280;54486;51.442;6.778;2023-01-27T08:36:03;102398.25;;;4.24;100.00
67697;BME280;54486;51.442;6.778;2023-01-27T08:38:30;102401.69;;;4.24;100.00
67697;BME280;54486;51.442;6.778;2023-01-27T08:40:57;102405.16;;;4.25;100.00
67697;BME280;54486;51.442;6.778;2023-01-27T08:43:24;102397.41;;;4.25;100.00
67697;BME280;54486;51.442;6.778;2023-01-27T08:45:51;102401.91;;;4.29;100.00
67697;BME280;54486;51.442;6.778;2023-01-27T08:48:19;102405.44;;;4.31;100.00
67697;BME280;54486;51.442;6.778;2023-01-27T08:50:47;102396.88;;;4.32;100.00
67697;BME280;54486;51.442;6.778;2023-01-27T08:53:14;102403.94;;;4.36;100.00
67697;BME280;54486;51.442;6.778;2023-01-27T08:55:41;102402.44;;;4.41;100.00
67697;BME280;54486;51.442;6.778;2023-01-27T08:58:08;102401.09;;;4.49;100.00
67697;BME280;54486;51.442;6.778;2023-01-27T09:00:35;102409.78;;;4.51;99.89
67697;BME280;54486;51.442;6.778;2023-01-27T09:03:02;102405.41;;;4.50;99.64
67697;BME280;54486;51.442;6.778;2023-01-27T09:05:28;102422.03;;;4.55;99.69
67697;BME280;54486;51.442;6.778;2023-01-27T09:07:56;102420.25;;;4.54;99.79
67697;BME280;54486;51.442;6.778;2023-01-27T09:10:22;102415.22;;;4.57;99.10
67697;BME280;54486;51.442;6.778;2023-01-27T09:12:50;102423.78;;;4.56;98.65
67697;BME280;54486;51.442;6.778;2023-01-27T09:15:17;102420.38;;;4.57;98.77
67697;BME280;54486;51.442;6.778;2023-01-27T09:17:44;102429.09;;;4.59;99.15
67697;BME280;54486;51.442;6.778;2023-01-27T09:20:11;102441.16;;;4.59;98.41
67697;BME280;54486;51.442;6.778;2023-01-27T09:22:39;102439.44;;;4.59;98.75
67697;BME280;54486;51.442;6.778;2023-01-27T09:25:07;102448.28;;;4.64;98.63
67697;BME280;54486;51.442;6.778;2023-01-27T09:27:35;102446.38;;;4.60;98.51
67697;BME280;54486;51.442;6.778;2023-01-27T09:30:07;102453.31;;;4.61;98.43
67697;BME280;54486;51.442;6.778;2023-01-27T09:32:34;102455.34;;;4.68;98.07
67697;BME280;54486;51.442;6.778;2023-01-27T09:35:01;102460.41;;;4.65;97.82
67697;BME280;54486;51.442;6.778;2023-01-27T09:37:28;102460.13;;;4.59;98.45
67697;BME280;54486;51.442;6.778;2023-01-27T09:39:57;102466.16;;;4.60;98.01
67697;BME280;54486;51.442;6.778;2023-01-27T09:50:26;102471.41;;;4.61;98.50
67697;BME280;54486;51.442;6.778;2023-01-27T10:11:14;102468.81;;;4.61;99.05
67697;BME280;54486;51.442;6.778;2023-01-27T10:27:15;102470.59;;;4.82;98.92
67697;BME280;54486;51.442;6.778;2023-01-27T10:29:46;102467.09;;;4.81;99.41
67697;BME280;54486;51.442;6.778;2023-01-27T10:34:57;102473.28;;;4.85;99.34
67697;BME280;54486;51.442;6.778;2023-01-27T10:40:00;102468.94;;;4.84;99.22
67697;BME280;54486;51.442;6.778;2023-01-27T10:42:44;102462.94;;;4.85;98.86
67697;BME280;54486;51.442;6.778;2023-01-27T10:50:41;102468.38;;;4.91;98.70
67697;BME280;54486;51.442;6.778;2023-01-27T10:53:19;102477.88;;;4.92;97.92
67697;BME280;54486;51.442;6.778;2023-01-27T10:55:59;102468.50;;;4.94;98.56
67697;BME280;54486;51.442;6.778;2023-01-27T10:58:32;102470.81;;;5.07;97.84
67697;BME280;54486;51.442;6.778;2023-01-27T11:01:03;102464.28;;;4.96;97.30
67697;BME280;54486;51.442;6.778;2023-01-27T11:03:52;102464.97;;;4.92;97.43
67697;BME280;54486;51.442;6.778;2023-01-27T11:06:26;102461.44;;;4.90;97.45
67697;BME280;54486;51.442;6.778;2023-01-27T11:09:11;102468.31;;;4.89;96.82
67697;BME280;54486;51.442;6.778;2023-01-27T11:11:41;102457.78;;;4.85;96.81
67697;BME280;54486;51.442;6.778;2023-01-27T11:14:16;102463.09;;;4.88;97.11
67697;BME280;54486;51.442;6.778;2023-01-27T11:16:52;102464.81;;;4.89;96.88
67697;BME280;54486;51.442;6.778;2023-01-27T11:19:23;102461.56;;;4.93;97.33
67697;BME280;54486;51.442;6.778;2023-01-27T11:21:53;102454.69;;;4.93;97.33
67697;BME280;54486;51.442;6.778;2023-01-27T11:24:35;102453.03;;;4.95;97.01
67697;BME280;54486;51.442;6.778;2023-01-27T11:27:10;102453.00;;;4.94;96.63
67697;BME280;54486;51.442;6.778;2023-01-27T11:29:51;102461.50;;;4.91;96.59
67697;BME280;54486;51.442;6.778;2023-01-27T11:32:27;102454.75;;;4.95;96.72
67697;BME280;54486;51.442;6.778;2023-01-27T11:35:10;102453.88;;;4.94;96.73
67697;BME280;54486;51.442;6.778;2023-01-27T11:37:42;102453.13;;;4.97;96.15
67697;BME280;54486;51.442;6.778;2023-01-27T11:40:25;102451.28;;;4.94;96.09
67697;BME280;54486;51.442;6.778;2023-01-27T11:42:54;102456.25;;;4.90;96.37
67697;BME280;54486;51.442;6.778;2023-01-27T11:45:22;102453.00;;;4.94;95.86
67697;BME280;54486;51.442;6.778;2023-01-27T11:47:51;102453.00;;;4.94;95.77
67697;BME280;54486;51.442;6.778;2023-01-27T11:50:19;102448.06;;;5.00;94.38
67697;BME280;54486;51.442;6.778;2023-01-27T11:52:48;102449.84;;;5.01;94.60
67697;BME280;54486;51.442;6.778;2023-01-27T11:55:18;102439.63;;;5.04;94.57
67697;BME280;54486;51.442;6.778;2023-01-27T11:57:56;102433.63;;;5.05;94.37
67697;BME280;54486;51.442;6.778;2023-01-27T12:00:28;102429.78;;;5.16;92.87
67697;BME280;54486;51.442;6.778;2023-01-27T12:02:59;102429.78;;;5.16;92.89
67697;BME280;54486;51.442;6.778;2023-01-27T12:05:30;102423.97;;;5.21;92.51
67697;BME280;54486;51.442;6.778;2023-01-27T12:08:03;102423.97;;;5.21;92.04
67697;BME280;54486;51.442;6.778;2023-01-27T12:10:35;102428.38;;;5.24;92.46
67697;BME280;54486;51.442;6.778;2023-01-27T12:13:19;102412.94;;;5.25;92.62
67697;BME280;54486;51.442;6.778;2023-01-27T12:15:48;102419.28;;;5.33;92.80
67697;BME280;54486;51.442;6.778;2023-01-27T12:18:16;102418.50;;;5.36;91.68
67697;BME280;54486;51.442;6.778;2023-01-27T12:20:44;102426.44;;;5.39;92.09
67697;BME280;54486;51.442;6.778;2023-01-27T12:23:23;102422.31;;;5.44;92.03
67697;BME280;54486;51.442;6.778;2023-01-27T12:25:53;102412.72;;;5.42;91.40
67697;BME280;54486;51.442;6.778;2023-01-27T12:28:35;102411.25;;;5.48;91.57
67697;BME280;54486;51.442;6.778;2023-01-27T12:31:10;102404.63;;;5.55;91.61
67697;BME280;54486;51.442;6.778;2023-01-27T12:33:39;102404.84;;;5.61;90.93
67697;BME280;54486;51.442;6.778;2023-01-27T12:36:16;102401.47;;;5.63;90.23
67697;BME280;54486;51.442;6.778;2023-01-27T12:38:53;102399.72;;;5.62;88.30
67697;BME280;54486;51.442;6.778;2023-01-27T12:41:25;102391.94;;;5.62;89.10
67697;BME280;54486;51.442;6.778;2023-01-27T12:46:39;102402.59;;;5.70;88.85
67697;BME280;54486;51.442;6.778;2023-01-27T12:49:08;102400.78;;;5.67;88.59
67697;BME280;54486;51.442;6.778;2023-01-27T12:51:38;102397.22;;;5.65;88.62
67697;BME280;54486;51.442;6.778;2023-01-27T12:54:13;102397.97;;;5.61;88.40
67697;BME280;54486;51.442;6.778;2023-01-27T12:56:40;102394.66;;;5.65;87.73
67697;BME280;54486;51.442;6.778;2023-01-27T12:59:11;102397.00;;;5.59;87.65
67697;BME280;54486;51.442;6.778;2023-01-27T13:01:39;102397.22;;;5.65;88.09
67697;BME280;54486;51.442;6.778;2023-01-27T13:04:18;102401.72;;;5.69;87.89
67697;BME280;54486;51.442;6.778;2023-01-27T13:06:49;102394.94;;;5.73;88.64
67697;BME280;54486;51.442;6.778;2023-01-27T13:11:46;102399.13;;;5.69;89.08
67697;BME280;54486;51.442;6.778;2023-01-27T13:14:14;102397.22;;;5.65;88.65
67697;BME280;54486;51.442;6.778;2023-01-27T13:16:49;102400.78;;;5.67;89.17
67697;BME280;54486;51.442;6.778;2023-01-27T13:19:18;102407.47;;;5.62;88.71
67697;BME280;54486;51.442;6.778;2023-01-27T13:21:50;102407.47;;;5.62;87.06
67697;BME280;54486;51.442;6.778;2023-01-27T13:24:23;102407.25;;;5.56;88.22
67697;BME280;54486;51.442;6.778;2023-01-27T13:26:54;102403.72;;;5.54;88.55
67697;BME280;54486;51.442;6.778;2023-01-27T13:29:23;102412.38;;;5.55;88.46
67697;BME280;54486;51.442;6.778;2023-01-27T13:37:14;102412.53;;;5.59;88.55
67697;BME280;54486;51.442;6.778;2023-01-27T13:42:25;102415.25;;;5.62;85.46
67697;BME280;54486;51.442;6.778;2023-01-27T13:44:58;102419.63;;;5.63;84.77
67697;BME280;54486;51.442;6.778;2023-01-27T13:47:28;102428.44;;;5.68;84.27
67697;BME280;54486;51.442;6.778;2023-01-27T13:49:57;102428.19;;;5.62;84.62
67697;BME280;54486;51.442;6.778;2023-01-27T13:52:26;102428.06;;;5.59;84.59
67697;BME280;54486;51.442;6.778;2023-01-27T13:54:53;102428.06;;;5.59;84.55
67697;BME280;54486;51.442;6.778;2023-01-27T13:57:25;102432.97;;;5.52;85.44
67697;BME280;54486;51.442;6.778;2023-01-27T14:00:02;102434.78;;;5.54;84.83
67697;BME280;54486;51.442;6.778;2023-01-27T14:13:32;102441.13;;;5.40;87.01
67697;BME280;54486;51.442;6.778;2023-01-27T14:18:35;102439.38;;;5.39;87.06
67697;BME280;54486;51.442;6.778;2023-01-27T14:23:53;102438.97;;;5.30;88.06
67697;BME280;54486;51.442;6.778;2023-01-27T14:36:48;102444.03;;;5.27;86.38
67697;BME280;54486;51.442;6.778;2023-01-27T14:44:24;102452.63;;;5.26;86.32
67697;BME280;54486;51.442;6.778;2023-01-27T14:55:20;102460.06;;;5.18;86.19
67697;BME280;54486;51.442;6.778;2023-01-27T15:03:16;102459.44;;;5.24;86.50
67697;BME280;54486;51.442;6.778;2023-01-27T15:08:30;102458.53;;;5.03;86.10
67697;BME280;54486;51.442;6.778;2023-01-27T15:18:59;102465.03;;;4.93;87.25